Aviation Digital Data Service (ADDS)

Output produced by METARs form (2206 UTC 23 April 2014)
found at http://aviationweather.gov/adds/metars/
 
KCRG 231729Z 2318/2418 VRB05KT P6SM BKN050 
     FM231930 11007KT P6SM FEW050 
     FM240000 VRB04KT P6SM SCT250 
     FM241500 13007KT P6SM SCT045 SCT250